createdAt,value
2023-05-22T00:01:57.835Z,10.40
2023-05-22T00:04:30.269Z,10.37
2023-05-22T00:06:59.169Z,11.33
2023-05-22T00:09:27.710Z,11.33
2023-05-22T00:11:56.582Z,11.57
2023-05-22T00:14:24.854Z,11.70
2023-05-22T00:16:53.599Z,11.47
2023-05-22T00:19:23.792Z,11.00
2023-05-22T00:21:54.378Z,10.63
2023-05-22T00:24:23.737Z,11.70
2023-05-22T00:26:52.514Z,11.13
2023-05-22T00:29:21.009Z,11.13
2023-05-22T00:31:49.961Z,11.63
2023-05-22T00:34:19.674Z,11.97
2023-05-22T00:36:48.386Z,11.30
2023-05-22T00:39:19.801Z,11.33
2023-05-22T00:41:48.674Z,12.80
2023-05-22T00:44:17.083Z,11.40
2023-05-22T00:46:45.951Z,11.13
2023-05-22T00:49:14.890Z,11.17
2023-05-22T00:51:43.773Z,11.33
2023-05-22T00:54:14.680Z,11.80
2023-05-22T00:56:46.240Z,10.67
2023-05-22T00:59:14.726Z,11.20
2023-05-22T01:01:43.636Z,11.00
2023-05-22T01:04:13.698Z,10.33
2023-05-22T01:06:42.960Z,11.00
2023-05-22T01:09:11.258Z,11.13
2023-05-22T01:11:51.175Z,12.30
2023-05-22T01:14:31.251Z,12.23
2023-05-22T01:17:09.630Z,12.17
2023-05-22T01:20:01.316Z,13.00
2023-05-22T01:22:58.895Z,10.87
2023-05-22T01:25:55.144Z,12.37
2023-05-22T01:28:43.489Z,13.07
2023-05-22T01:31:14.882Z,14.60
2023-05-22T01:33:48.467Z,13.63
2023-05-22T01:36:20.360Z,12.50
2023-05-22T01:38:50.321Z,13.80
2023-05-22T01:41:18.910Z,13.37
2023-05-22T01:43:47.886Z,14.97
2023-05-22T01:46:18.239Z,15.17
2023-05-22T01:48:46.654Z,15.37
2023-05-22T01:51:20.947Z,13.33
2023-05-22T01:53:57.199Z,15.63
2023-05-22T01:56:32.318Z,15.40
2023-05-22T01:59:05.829Z,16.00
2023-05-22T02:01:39.780Z,14.80
2023-05-22T02:04:09.435Z,15.10
2023-05-22T02:06:40.176Z,13.30
2023-05-22T02:09:09.362Z,13.83
2023-05-22T02:11:41.958Z,14.03
2023-05-22T02:14:13.578Z,15.20
2023-05-22T02:16:48.471Z,14.77
2023-05-22T02:19:16.902Z,13.57
2023-05-22T02:21:45.444Z,12.77
2023-05-22T02:24:14.186Z,12.40
2023-05-22T02:26:42.655Z,12.43
2023-05-22T02:29:11.027Z,15.00
2023-05-22T02:31:39.829Z,13.67
2023-05-22T02:34:09.704Z,13.70
2023-05-22T02:36:38.813Z,14.87
2023-05-22T02:39:07.032Z,14.40
2023-05-22T02:41:35.226Z,16.50
2023-05-22T02:44:03.981Z,14.87
2023-05-22T02:46:32.402Z,16.60
2023-05-22T02:49:01.154Z,17.87
2023-05-22T02:51:31.056Z,16.03
2023-05-22T02:53:59.310Z,18.13
2023-05-22T02:56:29.536Z,16.53
2023-05-22T02:58:57.942Z,16.10
2023-05-22T03:01:27.453Z,17.27
2023-05-22T03:03:56.671Z,16.40
2023-05-22T03:06:25.492Z,15.00
2023-05-22T03:08:55.315Z,16.17
2023-05-22T03:11:24.244Z,15.33
2023-05-22T03:13:52.779Z,17.37
2023-05-22T03:16:21.577Z,17.37
2023-05-22T03:18:53.571Z,16.20
2023-05-22T03:21:22.214Z,14.80
2023-05-22T03:23:50.643Z,15.90
2023-05-22T03:26:21.585Z,16.70
2023-05-22T03:28:51.316Z,17.90
2023-05-22T03:31:19.682Z,18.03
2023-05-22T03:33:48.149Z,17.70
2023-05-22T03:36:17.884Z,17.83
2023-05-22T03:38:46.201Z,16.70
2023-05-22T03:41:14.802Z,16.80
2023-05-22T03:43:45.287Z,17.67
2023-05-22T03:46:14.236Z,16.23
2023-05-22T03:48:42.576Z,16.60
2023-05-22T03:51:10.724Z,15.90
2023-05-22T03:53:39.501Z,14.73
2023-05-22T03:56:08.253Z,16.90
2023-05-22T03:58:36.517Z,15.27
2023-05-22T04:01:07.150Z,14.97
2023-05-22T04:03:35.406Z,15.10
2023-05-22T04:06:03.735Z,13.00
2023-05-22T04:08:32.626Z,14.17
2023-05-22T04:11:01.565Z,13.20
2023-05-22T04:13:31.191Z,14.87
2023-05-22T04:15:59.740Z,13.40
2023-05-22T04:18:29.557Z,12.47
2023-05-22T04:20:57.621Z,12.70
2023-05-22T04:23:26.146Z,12.40
2023-05-22T04:25:55.549Z,11.73
2023-05-22T04:28:24.112Z,12.93
2023-05-22T04:30:52.515Z,10.97
2023-05-22T04:33:21.650Z,12.80
2023-05-22T04:35:51.739Z,11.60
2023-05-22T04:38:20.257Z,10.63
2023-05-22T04:40:48.871Z,10.80
2023-05-22T04:43:19.174Z,10.93
2023-05-22T04:45:47.292Z,12.00
2023-05-22T04:48:16.102Z,11.33
2023-05-22T04:50:46.588Z,11.37
2023-05-22T04:53:16.600Z,10.17
2023-05-22T04:55:46.115Z,11.80
2023-05-22T04:58:14.371Z,10.90
2023-05-22T05:00:43.538Z,10.00
2023-05-22T05:03:11.953Z,11.70
2023-05-22T05:05:40.256Z,10.73
2023-05-22T05:08:09.059Z,10.93
2023-05-22T05:10:38.964Z,10.13
2023-05-22T05:13:07.360Z,10.17
2023-05-22T05:15:36.052Z,11.50
2023-05-22T05:18:04.390Z,10.50
2023-05-22T05:20:32.776Z,10.40
2023-05-22T05:23:01.358Z,10.00
2023-05-22T05:25:29.659Z,9.60
2023-05-22T05:27:59.332Z,9.40
2023-05-22T05:30:30.600Z,11.13
2023-05-22T05:32:59.389Z,10.07
2023-05-22T05:35:31.607Z,10.67
2023-05-22T05:38:05.515Z,9.53
2023-05-22T05:40:37.228Z,9.73
2023-05-22T05:43:09.414Z,9.63
2023-05-22T05:45:39.775Z,8.90
2023-05-22T05:48:12.408Z,10.47
2023-05-22T05:50:42.139Z,9.63
2023-05-22T05:53:10.580Z,9.30
2023-05-22T05:55:39.306Z,9.57
2023-05-22T05:58:10.325Z,9.70
2023-05-22T06:00:39.443Z,10.00
2023-05-22T06:03:08.148Z,8.53
2023-05-22T06:05:37.662Z,8.77
2023-05-22T06:08:08.983Z,8.37
2023-05-22T06:10:39.942Z,8.20
2023-05-22T06:13:10.204Z,7.77
2023-05-22T06:15:38.991Z,8.00
2023-05-22T06:18:07.781Z,8.03
2023-05-22T06:20:36.473Z,8.33
2023-05-22T06:23:04.964Z,8.13
2023-05-22T06:25:33.990Z,9.10
2023-05-22T06:28:02.606Z,8.60
2023-05-22T06:33:08.188Z,7.50
2023-05-22T06:35:36.851Z,6.50
2023-05-22T06:38:05.135Z,7.13
2023-05-22T06:40:33.957Z,5.77
2023-05-22T06:43:03.751Z,5.60
2023-05-22T06:45:33.785Z,6.27
2023-05-22T06:48:01.923Z,6.37
2023-05-22T06:50:31.385Z,5.70
2023-05-22T06:53:00.888Z,6.83
2023-05-22T06:55:30.085Z,6.07
2023-05-22T06:57:58.333Z,6.27
2023-05-22T07:00:27.363Z,6.53
2023-05-22T07:02:57.418Z,5.80
2023-05-22T07:05:25.976Z,5.67
2023-05-22T07:07:55.238Z,5.23
2023-05-22T07:10:25.341Z,6.00
2023-05-22T07:12:53.983Z,6.30
2023-05-22T07:15:23.249Z,6.17
2023-05-22T07:17:51.933Z,5.93
2023-05-22T07:20:22.196Z,6.07
2023-05-22T07:22:51.134Z,6.10
2023-05-22T07:25:20.454Z,6.30
2023-05-22T07:27:49.418Z,5.70
2023-05-22T07:30:19.046Z,5.87
2023-05-22T07:32:47.700Z,5.63
2023-05-22T07:35:15.984Z,6.07
2023-05-22T07:37:47.255Z,5.60
2023-05-22T07:40:17.663Z,5.40
2023-05-22T07:42:46.250Z,5.00
2023-05-22T07:45:15.035Z,5.40
2023-05-22T07:47:43.360Z,5.67
2023-05-22T07:50:11.913Z,5.63
2023-05-22T07:52:40.782Z,6.40
2023-05-22T07:55:11.512Z,5.10
2023-05-22T07:57:41.312Z,5.97
2023-05-22T08:00:14.470Z,5.67
2023-05-22T08:02:43.391Z,6.00
2023-05-22T08:05:12.411Z,5.80
2023-05-22T08:07:40.917Z,5.40
2023-05-22T08:10:17.197Z,5.50
2023-05-22T08:12:45.638Z,5.60
2023-05-22T08:15:23.678Z,5.83
2023-05-22T08:17:52.297Z,5.70
2023-05-22T08:20:20.752Z,5.07
2023-05-22T08:22:50.273Z,5.80
2023-05-22T08:25:20.525Z,5.37
2023-05-22T08:27:48.847Z,5.70
2023-05-22T08:30:18.311Z,5.87
2023-05-22T08:32:46.391Z,6.10
2023-05-22T08:35:15.590Z,4.63
2023-05-22T08:37:44.896Z,5.00
2023-05-22T08:40:13.971Z,5.30
2023-05-22T08:42:43.980Z,5.80
2023-05-22T08:45:13.174Z,5.07
2023-05-22T08:47:44.413Z,5.30
2023-05-22T08:50:15.061Z,5.20
2023-05-22T08:52:50.088Z,4.93
2023-05-22T08:55:20.073Z,5.00
2023-05-22T08:57:51.221Z,5.30
2023-05-22T09:00:21.196Z,5.60
2023-05-22T09:02:50.921Z,5.60
2023-05-22T09:05:19.328Z,5.40
2023-05-22T09:07:49.538Z,5.80
2023-05-22T09:10:17.884Z,5.10
2023-05-22T09:13:09.917Z,4.93
2023-05-22T09:15:38.450Z,5.37
2023-05-22T09:18:07.072Z,5.20
2023-05-22T09:20:40.697Z,4.97
2023-05-22T09:23:18.533Z,5.00
2023-05-22T09:25:48.202Z,4.30
2023-05-22T09:28:17.986Z,4.63
2023-05-22T09:30:50.380Z,5.00
2023-05-22T09:33:18.851Z,4.60
2023-05-22T09:35:48.491Z,4.77
2023-05-22T09:38:17.611Z,5.20
2023-05-22T09:40:46.035Z,5.00
2023-05-22T09:43:20.780Z,5.23
2023-05-22T09:45:48.980Z,4.70
2023-05-22T09:48:19.525Z,4.70
2023-05-22T09:50:55.438Z,4.90
2023-05-22T09:53:27.411Z,4.93
2023-05-22T09:55:58.496Z,4.50
2023-05-22T09:58:32.015Z,3.97
2023-05-22T10:01:02.999Z,4.20
2023-05-22T10:03:36.569Z,4.47
2023-05-22T10:06:07.748Z,4.23
2023-05-22T10:08:43.235Z,5.20
2023-05-22T10:11:12.766Z,4.27
2023-05-22T10:13:43.162Z,5.10
2023-05-22T10:16:12.176Z,4.43
2023-05-22T10:18:42.451Z,4.60
2023-05-22T10:21:10.810Z,4.63
2023-05-22T10:23:39.379Z,4.60
2023-05-22T10:26:08.992Z,4.40
2023-05-22T10:28:43.288Z,4.10
2023-05-22T10:31:20.212Z,4.33
2023-05-22T10:33:52.633Z,4.17
2023-05-22T10:36:30.305Z,4.67
2023-05-22T10:39:12.880Z,3.97
2023-05-22T10:41:42.077Z,4.30
2023-05-22T10:44:19.602Z,4.50
2023-05-22T10:46:51.520Z,5.10
2023-05-22T10:49:24.145Z,4.60
2023-05-22T10:51:57.843Z,5.10
2023-05-22T10:54:43.892Z,4.73
2023-05-22T10:57:16.475Z,4.30
2023-05-22T10:59:48.261Z,5.30
2023-05-22T11:02:30.202Z,5.33
2023-05-22T11:05:27.753Z,5.03
2023-05-22T11:08:12.022Z,4.83
2023-05-22T11:10:56.663Z,4.80
2023-05-22T11:13:29.391Z,5.03
2023-05-22T11:15:59.546Z,4.43
2023-05-22T11:18:30.822Z,4.53
2023-05-22T11:21:00.764Z,4.40
2023-05-22T11:23:28.987Z,4.40
2023-05-22T11:25:57.464Z,4.83
2023-05-22T11:28:25.877Z,5.20
2023-05-22T11:30:55.713Z,5.10
2023-05-22T11:33:26.337Z,5.17
2023-05-22T11:35:55.206Z,5.30
2023-05-22T11:38:23.875Z,5.53
2023-05-22T11:40:54.323Z,5.07
2023-05-22T11:43:33.242Z,4.50
2023-05-22T11:46:07.163Z,4.90
2023-05-22T11:48:37.261Z,5.10
2023-05-22T11:51:06.066Z,5.40
2023-05-22T11:53:36.205Z,4.60
2023-05-22T11:56:13.066Z,3.97
2023-05-22T11:58:45.646Z,4.03
2023-05-22T12:01:13.907Z,4.20
2023-05-22T12:03:47.033Z,4.10
2023-05-22T12:06:17.151Z,4.83
2023-05-22T12:08:46.088Z,4.50
2023-05-22T12:11:14.928Z,4.03
2023-05-22T12:13:44.123Z,4.30
2023-05-22T12:16:23.480Z,4.13
2023-05-22T12:18:55.634Z,3.97
2023-05-22T12:21:24.730Z,4.27
2023-05-22T12:23:53.369Z,4.43
2023-05-22T12:26:21.781Z,4.70
2023-05-22T12:28:54.235Z,4.97
2023-05-22T12:31:22.905Z,3.90
2023-05-22T12:33:54.667Z,4.67
2023-05-22T12:36:34.992Z,4.50
2023-05-22T12:39:04.252Z,4.30
2023-05-22T12:41:32.499Z,5.20
2023-05-22T12:44:02.093Z,4.80
2023-05-22T12:46:32.063Z,4.63
2023-05-22T12:49:00.506Z,5.03
2023-05-22T12:51:33.700Z,4.90
2023-05-22T12:54:04.856Z,4.40
2023-05-22T12:56:33.441Z,5.10
2023-05-22T12:59:01.824Z,4.90
2023-05-22T13:01:30.003Z,5.03
2023-05-22T13:03:58.478Z,4.30
2023-05-22T13:06:29.102Z,5.50
2023-05-22T13:09:00.544Z,4.40
2023-05-22T13:11:29.161Z,5.43
2023-05-22T13:13:57.703Z,4.50
2023-05-22T13:16:25.938Z,4.43
2023-05-22T13:18:55.663Z,4.57
2023-05-22T13:21:47.122Z,4.70
2023-05-22T13:24:17.044Z,4.33
2023-05-22T13:26:44.995Z,4.73
2023-05-22T13:29:13.192Z,4.57
2023-05-22T13:31:42.009Z,4.83
2023-05-22T13:34:10.225Z,4.60
2023-05-22T13:36:38.437Z,5.40
2023-05-22T13:39:07.214Z,5.27
2023-05-22T13:41:37.057Z,4.40
2023-05-22T13:44:05.390Z,5.40
2023-05-22T13:46:34.285Z,5.10
2023-05-22T13:49:02.460Z,4.33
2023-05-22T13:51:30.649Z,4.60
2023-05-22T13:53:59.639Z,4.13
2023-05-22T13:56:27.932Z,3.60
2023-05-22T13:58:57.982Z,5.00
2023-05-22T14:01:26.608Z,4.40
2023-05-22T14:03:54.488Z,4.57
2023-05-22T14:06:22.870Z,4.33
2023-05-22T14:08:51.443Z,5.10
2023-05-22T14:11:20.249Z,4.80
2023-05-22T14:13:48.624Z,4.33
2023-05-22T14:16:18.998Z,3.90
2023-05-22T14:18:47.289Z,4.67
2023-05-22T14:21:15.816Z,4.87
2023-05-22T14:23:44.343Z,4.70
2023-05-22T14:26:14.308Z,4.23
2023-05-22T14:28:43.211Z,4.20
2023-05-22T14:31:11.392Z,4.93
2023-05-22T14:33:41.211Z,5.27
2023-05-22T14:36:10.096Z,4.60
2023-05-22T14:38:38.869Z,5.13
2023-05-22T14:41:07.040Z,5.03
2023-05-22T14:43:37.546Z,4.60
2023-05-22T14:46:05.814Z,3.83
2023-05-22T14:48:33.928Z,4.70
2023-05-22T14:51:03.584Z,4.80
2023-05-22T14:53:31.779Z,5.17
2023-05-22T14:55:59.774Z,4.43
2023-05-22T14:58:28.256Z,5.40
2023-05-22T15:00:56.280Z,4.80
2023-05-22T15:03:24.212Z,4.77
2023-05-22T15:05:52.939Z,4.83
2023-05-22T15:08:22.304Z,4.20
2023-05-22T15:10:50.458Z,4.80
2023-05-22T15:13:19.084Z,4.07
2023-05-22T15:15:46.983Z,4.30
2023-05-22T15:18:16.688Z,4.70
2023-05-22T15:20:45.329Z,4.37
2023-05-22T15:23:13.780Z,4.20
2023-05-22T15:25:43.685Z,4.53
2023-05-22T15:28:12.193Z,4.33
2023-05-22T15:30:41.924Z,4.40
2023-05-22T15:33:12.204Z,4.50
2023-05-22T15:35:42.129Z,4.80
2023-05-22T15:38:13.084Z,4.67
2023-05-22T15:40:43.568Z,4.43
2023-05-22T15:43:11.997Z,4.60
2023-05-22T15:45:40.916Z,4.97
2023-05-22T15:48:09.619Z,5.47
2023-05-22T15:50:38.176Z,4.93
2023-05-22T15:53:06.528Z,4.30
2023-05-22T15:55:34.732Z,4.73
2023-05-22T15:58:06.792Z,5.43
2023-05-22T16:00:41.233Z,5.77
2023-05-22T16:03:10.600Z,5.57
2023-05-22T16:05:40.859Z,5.53
2023-05-22T16:08:11.340Z,5.07
2023-05-22T16:10:42.105Z,5.10
2023-05-22T16:13:13.020Z,5.40
2023-05-22T16:15:43.092Z,6.13
2023-05-22T16:18:13.777Z,4.60
2023-05-22T16:20:42.559Z,5.30
2023-05-22T16:23:11.310Z,5.77
2023-05-22T16:25:42.817Z,5.60
2023-05-22T16:28:13.174Z,5.43
2023-05-22T16:30:41.736Z,4.97
2023-05-22T16:33:10.213Z,4.83
2023-05-22T16:35:39.132Z,4.70
2023-05-22T16:38:11.938Z,5.20
2023-05-22T16:40:40.627Z,5.63
2023-05-22T16:43:09.936Z,5.33
2023-05-22T16:45:39.880Z,4.97
2023-05-22T16:48:08.989Z,5.30
2023-05-22T16:50:43.250Z,4.73
2023-05-22T16:53:11.990Z,4.80
2023-05-22T16:55:40.402Z,5.00
2023-05-22T16:58:09.707Z,5.13
2023-05-22T17:00:40.595Z,4.17
2023-05-22T17:03:09.230Z,4.20
2023-05-22T17:05:39.199Z,5.30
2023-05-22T17:08:08.112Z,4.80
2023-05-22T17:10:36.547Z,5.17
2023-05-22T17:13:05.513Z,4.97
2023-05-22T17:15:33.465Z,5.10
2023-05-22T17:18:03.635Z,5.20
2023-05-22T17:20:34.293Z,5.27
2023-05-22T17:23:03.077Z,5.43
2023-05-22T17:25:31.844Z,5.20
2023-05-22T17:27:59.817Z,5.53
2023-05-22T17:30:27.938Z,5.37
2023-05-22T17:32:58.350Z,4.33
2023-05-22T17:35:27.962Z,4.60
2023-05-22T17:37:56.166Z,5.80
2023-05-22T17:40:32.633Z,5.27
2023-05-22T17:43:12.960Z,5.30
2023-05-22T17:45:42.256Z,4.63
2023-05-22T17:48:11.336Z,5.40
2023-05-22T17:50:43.007Z,5.30
2023-05-22T17:53:11.014Z,7.23
2023-05-22T17:55:39.005Z,5.47
2023-05-22T17:58:08.071Z,6.23
2023-05-22T18:00:36.114Z,6.60
2023-05-22T18:03:04.291Z,6.03
2023-05-22T18:05:36.099Z,5.87
2023-05-22T18:08:05.549Z,6.00
2023-05-22T18:10:33.756Z,6.53
2023-05-22T18:13:01.829Z,7.10
2023-05-22T18:15:29.790Z,6.07
2023-05-22T18:17:57.875Z,6.20
2023-05-22T18:20:26.452Z,5.50
2023-05-22T18:22:54.535Z,5.80
2023-05-22T18:25:25.355Z,5.70
2023-05-22T18:27:56.188Z,6.73
2023-05-22T18:30:25.097Z,5.97
2023-05-22T18:32:53.808Z,7.57
2023-05-22T18:35:22.548Z,7.23
2023-05-22T18:37:50.794Z,7.13
2023-05-22T18:40:19.390Z,7.60
2023-05-22T18:42:49.553Z,7.37
2023-05-22T18:45:17.808Z,8.10
2023-05-22T18:47:46.431Z,7.33
2023-05-22T18:50:15.184Z,7.03
2023-05-22T18:52:43.369Z,7.20
2023-05-22T18:55:12.252Z,7.00
2023-05-22T18:57:41.212Z,8.63
2023-05-22T19:00:12.338Z,7.33
2023-05-22T19:02:40.769Z,8.17
2023-05-22T19:05:09.818Z,8.13
2023-05-22T19:07:37.935Z,8.97
2023-05-22T19:10:08.320Z,7.43
2023-05-22T19:12:36.563Z,8.47
2023-05-22T19:15:06.892Z,9.10
2023-05-22T19:17:37.418Z,9.97
2023-05-22T19:20:07.573Z,8.80
2023-05-22T19:22:36.204Z,9.37
2023-05-22T19:25:11.807Z,8.30
2023-05-22T19:27:41.341Z,8.23
2023-05-22T19:30:10.919Z,8.03
2023-05-22T19:32:40.956Z,8.30
2023-05-22T19:35:09.699Z,8.80
2023-05-22T19:37:38.551Z,8.97
2023-05-22T19:40:09.792Z,7.67
2023-05-22T19:42:39.957Z,7.87
2023-05-22T19:45:10.569Z,8.30
2023-05-22T19:47:40.601Z,9.50
2023-05-22T19:50:09.648Z,9.53
2023-05-22T19:52:37.792Z,8.60
2023-05-22T19:55:07.083Z,8.67
2023-05-22T19:57:35.219Z,9.03
2023-05-22T20:00:08.116Z,9.40
2023-05-22T20:02:36.440Z,9.03
2023-05-22T20:05:09.985Z,8.57
2023-05-22T20:07:38.150Z,8.43
2023-05-22T20:10:07.287Z,8.60
2023-05-22T20:12:36.178Z,8.97
2023-05-22T20:15:06.970Z,8.87
2023-05-22T20:17:36.667Z,9.10
2023-05-22T20:20:07.916Z,9.07
2023-05-22T20:22:37.106Z,9.07
2023-05-22T20:25:06.094Z,8.50
2023-05-22T20:27:34.349Z,8.47
2023-05-22T20:30:03.060Z,8.53
2023-05-22T20:32:32.525Z,9.23
2023-05-22T20:35:01.310Z,8.23
2023-05-22T20:37:35.317Z,8.83
2023-05-22T20:40:09.804Z,8.07
2023-05-22T20:42:38.577Z,8.70
2023-05-22T20:45:07.871Z,9.03
2023-05-22T20:47:36.489Z,8.20
2023-05-22T20:50:05.732Z,10.03
2023-05-22T20:52:37.218Z,8.50
2023-05-22T20:55:07.885Z,8.90
2023-05-22T20:57:36.080Z,9.20
2023-05-22T21:00:05.933Z,8.83
2023-05-22T21:02:34.563Z,9.63
2023-05-22T21:05:02.606Z,9.13
2023-05-22T21:07:30.522Z,9.20
2023-05-22T21:10:00.400Z,9.30
2023-05-22T21:12:28.887Z,8.87
2023-05-22T21:14:58.945Z,9.57
2023-05-22T21:17:27.572Z,8.93
2023-05-22T21:19:55.699Z,8.33
2023-05-22T21:22:23.898Z,9.50
2023-05-22T21:24:52.472Z,9.37
2023-05-22T21:27:21.943Z,10.00
2023-05-22T21:29:49.939Z,10.93
2023-05-22T21:32:18.457Z,9.00
2023-05-22T21:34:46.746Z,9.63
2023-05-22T21:37:15.114Z,9.90
2023-05-22T21:39:43.521Z,10.03
2023-05-22T21:42:11.507Z,9.77
2023-05-22T21:44:41.272Z,10.10
2023-05-22T21:47:09.599Z,9.90
2023-05-22T21:49:39.540Z,9.20
2023-05-22T21:52:07.899Z,9.40
2023-05-22T21:54:36.474Z,10.90
2023-05-22T21:57:04.722Z,10.27
2023-05-22T21:59:32.681Z,10.20
2023-05-22T22:02:02.681Z,10.40
2023-05-22T22:04:30.635Z,10.30
2023-05-22T22:06:58.787Z,10.87
2023-05-22T22:09:27.405Z,10.33
2023-05-22T22:11:55.368Z,11.33
2023-05-22T22:14:24.089Z,11.43
2023-05-22T22:16:54.743Z,11.63
2023-05-22T22:19:24.491Z,9.70
2023-05-22T22:21:52.574Z,9.70
2023-05-22T22:24:21.015Z,9.90
2023-05-22T22:26:50.087Z,10.70
2023-05-22T22:29:18.174Z,9.90
2023-05-22T22:31:48.014Z,11.10
2023-05-22T22:34:16.032Z,9.97
2023-05-22T22:36:45.589Z,10.50
2023-05-22T22:39:14.193Z,12.47
2023-05-22T22:41:43.378Z,12.60
2023-05-22T22:44:11.548Z,13.13
2023-05-22T22:46:40.058Z,11.50
2023-05-22T22:49:08.841Z,10.80
2023-05-22T22:51:36.919Z,11.30
2023-05-22T22:54:06.955Z,11.00
2023-05-22T22:56:35.092Z,11.17
2023-05-22T22:59:03.238Z,10.20
2023-05-22T23:01:31.826Z,10.83
2023-05-22T23:03:59.814Z,12.03
2023-05-22T23:06:29.685Z,11.50
2023-05-22T23:08:59.416Z,11.70
2023-05-22T23:11:35.083Z,12.30
2023-05-22T23:14:04.385Z,12.57
2023-05-22T23:16:35.926Z,12.37
2023-05-22T23:19:05.295Z,13.00
2023-05-22T23:21:33.585Z,12.43
2023-05-22T23:24:04.137Z,13.00
2023-05-22T23:26:34.776Z,12.97
2023-05-22T23:29:03.662Z,11.80
2023-05-22T23:31:31.854Z,12.27
2023-05-22T23:34:00.284Z,14.03
2023-05-22T23:36:28.357Z,13.03
2023-05-22T23:38:56.688Z,12.80
2023-05-22T23:41:25.508Z,12.20
2023-05-22T23:43:55.134Z,12.30
2023-05-22T23:46:24.854Z,11.63
2023-05-22T23:48:53.379Z,10.67
2023-05-22T23:51:21.936Z,11.27
2023-05-22T23:53:50.517Z,11.20
2023-05-22T23:56:18.682Z,12.87
2023-05-22T23:58:46.636Z,11.57
